createdAt,value
2023-01-21T00:01:56.522Z,88.20
2023-01-21T00:04:29.630Z,88.20
2023-01-21T00:06:58.411Z,87.50
2023-01-21T00:09:28.203Z,87.20
2023-01-21T00:11:57.207Z,86.90
2023-01-21T00:14:25.970Z,86.70
2023-01-21T00:17:12.319Z,86.70
2023-01-21T00:22:31.339Z,85.20
2023-01-21T00:25:00.250Z,85.30
2023-01-21T00:27:28.973Z,84.60
2023-01-21T00:30:33.777Z,83.80
2023-01-21T00:33:19.786Z,83.60
2023-01-21T00:35:59.229Z,83.80
2023-01-21T00:38:27.980Z,83.30
2023-01-21T00:41:01.632Z,84.10
2023-01-21T00:43:50.156Z,80.80
2023-01-21T00:46:37.288Z,80.00
2023-01-21T00:49:06.228Z,78.40
2023-01-21T00:51:36.543Z,78.30
2023-01-21T00:54:05.508Z,77.60
2023-01-21T00:56:34.259Z,76.50
2023-01-21T00:59:21.751Z,75.10
2023-01-21T01:02:09.356Z,74.30
2023-01-21T01:04:55.571Z,76.10
2023-01-21T01:08:01.922Z,74.60
2023-01-21T01:10:49.538Z,74.10
2023-01-21T01:13:18.450Z,71.40
2023-01-21T01:16:07.406Z,68.80
2023-01-21T01:18:37.467Z,67.70
2023-01-21T01:21:07.467Z,67.40
2023-01-21T01:23:39.695Z,68.50
2023-01-21T01:26:14.865Z,68.50
2023-01-21T01:28:44.270Z,69.80
2023-01-21T01:31:48.699Z,69.60
2023-01-21T01:34:17.431Z,67.50
2023-01-21T01:36:46.135Z,67.50
2023-01-21T01:39:53.434Z,67.50
2023-01-21T01:42:41.487Z,67.60
2023-01-21T01:45:22.400Z,67.60
2023-01-21T01:48:13.518Z,67.60
2023-01-21T01:50:45.148Z,67.90
2023-01-21T01:53:15.274Z,67.60
2023-01-21T01:55:46.924Z,67.20
2023-01-21T01:58:17.053Z,69.00
2023-01-21T02:00:46.175Z,66.40
2023-01-21T02:06:40.869Z,66.10
2023-01-21T02:09:09.610Z,66.60
2023-01-21T02:11:39.877Z,66.70
2023-01-21T02:14:09.560Z,67.40
2023-01-21T02:17:07.661Z,67.30
2023-01-21T02:20:36.625Z,66.10
2023-01-21T02:23:13.998Z,64.10
2023-01-21T02:26:34.755Z,64.60
2023-01-21T02:29:49.869Z,64.70
2023-01-21T02:33:38.801Z,65.00
2023-01-21T02:36:28.364Z,64.00
2023-01-21T02:39:25.320Z,63.90
2023-01-21T02:42:14.079Z,64.80
2023-01-21T02:44:50.652Z,65.80
2023-01-21T02:47:26.909Z,65.10
2023-01-21T02:50:17.419Z,65.40
2023-01-21T02:53:03.766Z,65.40
2023-01-21T02:58:25.300Z,65.80
2023-01-21T03:01:08.051Z,65.40
2023-01-21T03:04:25.615Z,65.40
2023-01-21T03:07:03.511Z,65.30
2023-01-21T03:10:14.245Z,64.40
2023-01-21T03:13:06.704Z,64.80
2023-01-21T03:15:56.633Z,64.30
2023-01-21T03:18:48.630Z,64.70
2023-01-21T03:21:22.171Z,65.30
2023-01-21T03:23:56.250Z,64.60
2023-01-21T03:26:31.402Z,63.30
2023-01-21T03:29:06.613Z,64.00
2023-01-21T03:31:38.828Z,63.50
2023-01-21T03:34:31.095Z,62.90
2023-01-21T03:37:22.690Z,62.80
2023-01-21T03:40:16.369Z,62.40
2023-01-21T03:43:04.292Z,62.40
2023-01-21T03:45:58.566Z,63.30
2023-01-21T03:48:34.247Z,62.00
2023-01-21T03:51:09.015Z,62.20
2023-01-21T03:53:56.226Z,61.70
2023-01-21T03:56:45.251Z,61.20
2023-01-21T04:05:58.011Z,62.20
2023-01-21T04:08:26.811Z,61.20
2023-01-21T04:10:55.499Z,61.40
2023-01-21T04:16:12.065Z,60.10
2023-01-21T04:18:40.952Z,60.30
2023-01-21T04:21:27.851Z,60.90
2023-01-21T04:24:14.265Z,60.40
2023-01-21T04:26:43.057Z,60.30
2023-01-21T04:29:13.233Z,62.50
2023-01-21T04:32:19.450Z,63.90
2023-01-21T04:35:06.882Z,63.20
2023-01-21T04:37:35.640Z,63.20
2023-01-21T04:40:04.552Z,63.60
2023-01-21T04:42:34.389Z,61.50
2023-01-21T04:45:23.354Z,63.50
2023-01-21T04:47:52.151Z,63.60
2023-01-21T04:50:39.301Z,64.10
2023-01-21T04:56:31.454Z,63.80
2023-01-21T04:59:00.407Z,62.60
2023-01-21T05:01:30.915Z,63.00
2023-01-21T05:03:59.839Z,64.70
2023-01-21T05:06:46.875Z,64.90
2023-01-21T05:09:15.724Z,65.70
2023-01-21T05:11:44.555Z,63.90
2023-01-21T05:14:13.293Z,65.30
2023-01-21T05:17:01.940Z,64.10
2023-01-21T05:19:30.734Z,65.30
2023-01-21T05:21:59.559Z,64.50
2023-01-21T05:24:30.377Z,67.10
2023-01-21T05:26:59.119Z,68.10
2023-01-21T05:29:45.162Z,67.90
2023-01-21T05:35:01.352Z,68.70
2023-01-21T05:37:47.583Z,68.50
2023-01-21T05:40:36.785Z,68.00
2023-01-21T05:43:25.883Z,68.40
2023-01-21T05:45:55.818Z,68.50
2023-01-21T05:48:26.370Z,70.20
2023-01-21T05:56:47.610Z,69.90
2023-01-21T05:59:16.324Z,69.80
2023-01-21T06:02:02.325Z,69.80
2023-01-21T06:04:50.846Z,69.40
2023-01-21T06:07:19.618Z,68.30
2023-01-21T06:09:48.351Z,68.80
2023-01-21T06:12:35.613Z,69.20
2023-01-21T06:15:22.751Z,70.50
2023-01-21T06:18:08.707Z,69.60
2023-01-21T06:20:57.504Z,70.70
2023-01-21T06:26:30.416Z,70.90
2023-01-21T06:28:59.411Z,71.20
2023-01-21T06:31:46.898Z,70.90
2023-01-21T06:34:52.859Z,70.10
2023-01-21T06:37:41.510Z,70.40
2023-01-21T06:40:12.172Z,70.50
2023-01-21T06:42:41.321Z,70.30
2023-01-21T06:45:31.252Z,69.70
2023-01-21T06:48:37.685Z,69.40
2023-01-21T06:51:26.108Z,70.50
2023-01-21T06:53:56.343Z,69.30
2023-01-21T06:56:44.310Z,69.90
2023-01-21T06:59:14.129Z,69.80
2023-01-21T07:01:45.587Z,69.00
2023-01-21T07:04:14.473Z,70.00
2023-01-21T07:07:18.951Z,68.40
2023-01-21T07:09:49.175Z,68.20
2023-01-21T07:12:55.226Z,68.60
2023-01-21T07:15:24.090Z,68.40
2023-01-21T07:20:42.775Z,67.90
2023-01-21T07:23:28.971Z,68.30
2023-01-21T07:26:38.338Z,67.20
2023-01-21T07:29:07.601Z,67.00
2023-01-21T07:34:59.471Z,66.60
2023-01-21T07:37:46.861Z,65.90
2023-01-21T07:43:03.433Z,65.40
2023-01-21T07:45:52.618Z,65.20
2023-01-21T07:48:39.834Z,64.50
2023-01-21T07:51:08.779Z,64.80
2023-01-21T07:53:37.627Z,65.10
2023-01-21T07:56:26.482Z,64.30
2023-01-21T07:58:57.241Z,64.70
2023-01-21T08:01:43.289Z,64.60
2023-01-21T08:04:30.593Z,64.70
2023-01-21T08:07:17.733Z,64.80
2023-01-21T08:10:05.801Z,64.70
2023-01-21T08:15:40.354Z,65.60
2023-01-21T08:18:09.072Z,65.90
2023-01-21T08:20:37.791Z,66.40
2023-01-21T08:23:06.540Z,66.90
2023-01-21T08:25:35.300Z,66.70
2023-01-21T08:28:04.117Z,66.20
2023-01-21T08:30:32.887Z,66.90
2023-01-21T08:33:05.503Z,67.00
2023-01-21T08:35:35.135Z,66.10
2023-01-21T08:38:22.471Z,65.90
2023-01-21T08:40:51.271Z,67.30
2023-01-21T08:43:20.066Z,67.40
2023-01-21T08:46:43.284Z,67.50
2023-01-21T08:52:36.513Z,69.90
2023-01-21T08:55:05.472Z,67.00
2023-01-21T08:57:36.488Z,68.60
2023-01-21T09:00:06.143Z,68.10
2023-01-21T09:02:53.838Z,68.80
2023-01-21T09:06:03.123Z,69.70
2023-01-21T09:08:31.852Z,69.30
2023-01-21T09:11:36.067Z,66.20
2023-01-21T09:14:04.962Z,68.50
2023-01-21T09:16:33.705Z,69.70
2023-01-21T09:19:21.080Z,66.70
2023-01-21T09:21:52.604Z,65.80
2023-01-21T09:24:39.631Z,67.90
2023-01-21T09:27:08.651Z,69.00
2023-01-21T09:29:37.388Z,66.80
2023-01-21T09:32:08.166Z,67.80
2023-01-21T09:34:54.510Z,68.40
2023-01-21T09:37:24.750Z,66.60
2023-01-21T09:42:42.841Z,66.20
2023-01-21T09:45:16.857Z,64.00
2023-01-21T09:47:47.802Z,65.90
2023-01-21T09:50:53.929Z,67.40
2023-01-21T09:53:33.859Z,62.00
2023-01-21T09:56:06.223Z,61.30
2023-01-21T09:58:41.552Z,62.70
2023-01-21T10:01:30.321Z,60.60
2023-01-21T10:04:34.369Z,59.70
2023-01-21T10:07:27.888Z,58.20
2023-01-21T10:10:10.799Z,56.80
2023-01-21T10:12:56.290Z,56.10
2023-01-21T10:15:48.827Z,55.30
2023-01-21T10:18:38.362Z,54.80
2023-01-21T10:21:12.354Z,54.40
2023-01-21T10:23:44.431Z,54.70
2023-01-21T10:26:34.123Z,55.10
2023-01-21T10:29:22.054Z,55.40
2023-01-21T10:32:15.111Z,55.50
2023-01-21T10:35:05.970Z,56.40
2023-01-21T10:37:39.119Z,55.70
2023-01-21T10:40:43.985Z,57.60
2023-01-21T10:43:25.468Z,57.70
2023-01-21T10:46:31.376Z,58.60
2023-01-21T10:52:17.351Z,56.20
2023-01-21T10:55:09.109Z,56.30
2023-01-21T10:57:55.169Z,56.20
2023-01-21T11:00:47.497Z,56.40
2023-01-21T11:03:25.360Z,56.70
2023-01-21T11:05:54.232Z,56.50
2023-01-21T11:08:25.191Z,56.60
2023-01-21T11:10:56.050Z,55.20
2023-01-21T11:13:42.635Z,55.30
2023-01-21T11:16:36.490Z,53.50
2023-01-21T11:19:24.610Z,52.90
2023-01-21T11:22:21.237Z,51.40
2023-01-21T11:27:58.172Z,51.90
2023-01-21T11:30:51.147Z,52.60
2023-01-21T11:33:44.890Z,51.60
2023-01-21T11:36:16.466Z,52.00
2023-01-21T11:39:04.529Z,51.90
2023-01-21T11:45:04.453Z,52.70
2023-01-21T11:47:39.220Z,51.20
2023-01-21T11:50:29.166Z,51.60
2023-01-21T11:53:17.554Z,51.90
2023-01-21T11:56:05.094Z,52.20
2023-01-21T11:58:38.991Z,52.70
2023-01-21T12:01:10.300Z,51.90
2023-01-21T12:03:44.580Z,53.50
2023-01-21T12:06:20.169Z,51.80
2023-01-21T12:08:52.150Z,50.70
2023-01-21T12:11:23.410Z,49.90
2023-01-21T12:14:05.410Z,49.00
2023-01-21T12:16:36.229Z,47.70
2023-01-21T12:19:23.099Z,46.90
2023-01-21T12:22:30.838Z,46.10
2023-01-21T12:25:21.023Z,47.00
2023-01-21T12:28:07.390Z,47.70
2023-01-21T12:34:35.408Z,47.70
2023-01-21T12:37:28.128Z,47.10
2023-01-21T12:40:01.084Z,48.10
2023-01-21T12:42:50.422Z,49.50
2023-01-21T12:45:39.481Z,49.60
2023-01-21T12:48:15.191Z,50.90
2023-01-21T12:53:55.323Z,51.90
2023-01-21T12:56:48.187Z,52.90
2023-01-21T12:59:25.153Z,52.60
2023-01-21T13:01:58.785Z,52.40
2023-01-21T13:04:44.118Z,52.70
2023-01-21T13:10:45.549Z,52.20
2023-01-21T13:13:37.633Z,51.90
2023-01-21T13:16:27.939Z,51.70
2023-01-21T13:18:56.867Z,51.90
2023-01-21T13:21:35.882Z,51.80
2023-01-21T13:24:17.033Z,51.90
2023-01-21T13:27:09.048Z,51.70
2023-01-21T13:29:45.710Z,49.80
2023-01-21T13:32:54.900Z,48.70
2023-01-21T13:35:33.199Z,48.00
2023-01-21T13:38:10.531Z,46.60
2023-01-21T13:41:16.319Z,47.30
2023-01-21T13:44:13.722Z,50.30
2023-01-21T13:47:09.117Z,52.10
2023-01-21T13:50:06.215Z,51.60
2023-01-21T13:56:01.753Z,52.90
2023-01-21T13:58:51.658Z,54.70
2023-01-21T14:01:42.713Z,54.80
2023-01-21T14:04:17.164Z,55.20
2023-01-21T14:06:56.241Z,53.90
2023-01-21T14:09:46.391Z,54.20
2023-01-21T14:12:19.430Z,54.80
2023-01-21T14:15:06.569Z,54.00
2023-01-21T14:18:03.464Z,53.40
2023-01-21T14:21:04.838Z,55.40
2023-01-21T14:24:05.268Z,55.40
2023-01-21T14:26:59.910Z,56.60
2023-01-21T14:29:51.286Z,55.20
2023-01-21T14:32:28.161Z,55.80
2023-01-21T14:35:07.960Z,55.40
2023-01-21T14:37:43.962Z,56.30
2023-01-21T14:40:38.349Z,55.70
2023-01-21T14:43:07.090Z,58.10
2023-01-21T14:45:55.557Z,58.60
2023-01-21T14:48:32.427Z,58.30
2023-01-21T14:51:14.483Z,58.80
2023-01-21T14:54:07.079Z,59.70
2023-01-21T14:56:53.763Z,57.70
2023-01-21T14:59:35.952Z,57.00
2023-01-21T15:02:19.676Z,56.70
2023-01-21T15:04:55.731Z,58.90
2023-01-21T15:07:26.979Z,61.10
2023-01-21T15:10:00.589Z,60.70
2023-01-21T15:12:32.440Z,60.50
2023-01-21T15:15:05.382Z,61.50
2023-01-21T15:17:48.030Z,61.90
2023-01-21T15:20:57.900Z,61.30
2023-01-21T15:23:56.672Z,61.40
2023-01-21T15:26:53.471Z,62.80
2023-01-21T15:29:33.669Z,62.20
2023-01-21T15:32:23.130Z,63.00
2023-01-21T15:34:54.462Z,62.80
2023-01-21T15:37:46.095Z,62.00
2023-01-21T15:40:20.249Z,62.20
2023-01-21T15:43:14.303Z,63.00
2023-01-21T15:45:51.055Z,62.30
2023-01-21T15:48:45.712Z,63.30
2023-01-21T15:51:25.644Z,62.20
2023-01-21T15:54:07.553Z,61.60
2023-01-21T15:59:54.449Z,62.60
2023-01-21T16:02:26.542Z,63.20
2023-01-21T16:05:21.553Z,64.30
2023-01-21T16:08:14.391Z,65.00
2023-01-21T16:11:07.288Z,65.00
2023-01-21T16:13:48.489Z,64.40
2023-01-21T16:16:50.188Z,65.50
2023-01-21T16:19:27.633Z,64.60
2023-01-21T16:21:59.992Z,65.50
2023-01-21T16:24:30.969Z,65.80
2023-01-21T16:27:18.790Z,67.10
2023-01-21T16:29:48.276Z,67.50
2023-01-21T16:32:22.223Z,66.00
2023-01-21T16:34:51.150Z,66.60
2023-01-21T16:37:56.705Z,66.90
2023-01-21T16:40:48.183Z,66.10
2023-01-21T16:43:43.694Z,66.90
2023-01-21T16:46:15.303Z,67.90
2023-01-21T16:49:24.090Z,68.70
2023-01-21T16:55:01.912Z,66.50
2023-01-21T17:01:03.931Z,65.90
2023-01-21T17:03:36.573Z,65.30
2023-01-21T17:06:12.039Z,65.90
2023-01-21T17:08:41.880Z,67.30
2023-01-21T17:14:00.138Z,66.50
2023-01-21T17:16:31.359Z,66.50
2023-01-21T17:19:04.779Z,66.40
2023-01-21T17:21:40.661Z,66.40
2023-01-21T17:24:19.070Z,66.70
2023-01-21T17:26:49.987Z,67.00
2023-01-21T17:29:36.973Z,67.00
2023-01-21T17:32:07.197Z,67.70
2023-01-21T17:34:40.030Z,69.80
2023-01-21T17:37:45.425Z,69.60
2023-01-21T17:40:30.079Z,66.30
2023-01-21T17:43:00.360Z,67.00
2023-01-21T17:45:32.686Z,68.70
2023-01-21T17:48:42.282Z,67.00
2023-01-21T17:51:16.695Z,65.20
2023-01-21T17:54:09.703Z,65.20
2023-01-21T17:57:17.797Z,65.80
2023-01-21T18:00:04.500Z,65.30
2023-01-21T18:02:33.472Z,63.80
2023-01-21T18:05:02.281Z,63.30
2023-01-21T18:07:35.271Z,63.20
2023-01-21T18:10:16.494Z,63.00
2023-01-21T18:12:45.287Z,63.10
2023-01-21T18:15:16.119Z,62.80
2023-01-21T18:17:47.232Z,62.10
2023-01-21T18:20:19.902Z,61.50
2023-01-21T18:23:07.269Z,62.50
2023-01-21T18:25:39.642Z,61.70
2023-01-21T18:28:09.252Z,61.50
2023-01-21T18:30:38.135Z,61.60
2023-01-21T18:33:06.941Z,61.90
2023-01-21T18:35:38.891Z,63.60
2023-01-21T18:38:45.839Z,65.10
2023-01-21T18:41:16.141Z,63.30
2023-01-21T18:44:03.212Z,62.20
2023-01-21T18:47:09.110Z,62.40
2023-01-21T18:49:37.914Z,61.20
2023-01-21T18:52:07.347Z,61.70
2023-01-21T18:54:36.331Z,61.90
2023-01-21T18:57:11.220Z,62.60
2023-01-21T19:00:00.246Z,63.60
2023-01-21T19:02:29.044Z,61.90
2023-01-21T19:05:17.267Z,61.60
2023-01-21T19:07:46.125Z,61.20
2023-01-21T19:10:17.922Z,60.90
2023-01-21T19:13:06.928Z,61.10
2023-01-21T19:15:35.791Z,60.80
2023-01-21T19:18:10.660Z,60.90
2023-01-21T19:20:41.745Z,61.40
2023-01-21T19:23:15.368Z,60.70
2023-01-21T19:26:03.971Z,60.90
2023-01-21T19:28:35.650Z,63.00
2023-01-21T19:31:04.629Z,63.80
2023-01-21T19:33:33.393Z,62.10
2023-01-21T19:36:06.100Z,61.30
2023-01-21T19:38:52.341Z,62.00
2023-01-21T19:41:23.881Z,64.50
2023-01-21T19:44:11.413Z,65.30
2023-01-21T19:50:04.411Z,67.70
2023-01-21T19:52:34.397Z,67.10
2023-01-21T19:58:13.303Z,68.50
2023-01-21T20:00:43.644Z,68.00
2023-01-21T20:03:13.800Z,68.60
2023-01-21T20:06:03.214Z,69.00
2023-01-21T20:09:14.748Z,68.70
2023-01-21T20:11:43.475Z,68.70
2023-01-21T20:14:12.670Z,69.90
2023-01-21T20:16:47.144Z,70.10
2023-01-21T20:19:17.738Z,70.30
2023-01-21T20:21:59.916Z,71.30
2023-01-21T20:24:48.299Z,70.20
2023-01-21T20:27:19.207Z,70.30
2023-01-21T20:29:55.878Z,70.50
2023-01-21T20:32:54.299Z,70.60
2023-01-21T20:35:24.800Z,71.70
2023-01-21T20:37:55.091Z,72.10
2023-01-21T20:40:27.644Z,71.70
2023-01-21T20:42:57.911Z,72.10
2023-01-21T20:45:33.231Z,71.60
2023-01-21T20:48:05.182Z,71.90
2023-01-21T20:50:53.280Z,72.60
2023-01-21T20:56:20.768Z,72.70
2023-01-21T20:59:07.541Z,72.20
2023-01-21T21:01:56.183Z,73.00
2023-01-21T21:04:43.991Z,73.30
2023-01-21T21:07:16.853Z,73.50
2023-01-21T21:09:45.690Z,73.90
2023-01-21T21:12:14.381Z,74.30
2023-01-21T21:15:02.588Z,75.60
2023-01-21T21:17:31.359Z,76.30
2023-01-21T21:25:38.513Z,77.00
2023-01-21T21:28:07.372Z,76.90
2023-01-21T21:30:36.310Z,74.90
2023-01-21T21:33:05.590Z,74.10
2023-01-21T21:35:37.158Z,73.60
2023-01-21T21:38:25.538Z,72.40
2023-01-21T21:41:16.327Z,73.00
2023-01-21T21:43:44.069Z,72.60
2023-01-21T21:46:31.873Z,72.30
2023-01-21T21:49:18.355Z,72.60
2023-01-21T21:51:48.624Z,73.80
2023-01-21T21:54:18.877Z,74.50
2023-01-21T21:56:49.378Z,74.50
2023-01-21T21:59:18.167Z,74.80
2023-01-21T22:01:46.953Z,74.90
2023-01-21T22:04:16.517Z,75.10
2023-01-21T22:07:05.158Z,75.00
2023-01-21T22:09:34.590Z,74.00
2023-01-21T22:15:06.700Z,72.70
2023-01-21T22:20:21.530Z,72.70
2023-01-21T22:22:51.688Z,72.60
2023-01-21T22:25:38.121Z,72.50
2023-01-21T22:28:06.893Z,72.20
2023-01-21T22:33:40.504Z,72.30
2023-01-21T22:36:47.123Z,72.60
2023-01-21T22:39:17.586Z,71.90
2023-01-21T22:42:05.284Z,72.30
2023-01-21T22:44:34.043Z,73.10
2023-01-21T22:47:22.643Z,72.50
2023-01-21T22:49:53.373Z,71.10
2023-01-21T22:52:22.130Z,71.30
2023-01-21T22:54:52.341Z,71.50
2023-01-21T22:57:38.805Z,70.50
2023-01-21T23:00:10.342Z,71.00
2023-01-21T23:03:15.295Z,72.50
2023-01-21T23:05:44.329Z,73.20
2023-01-21T23:08:13.110Z,73.30
2023-01-21T23:10:43.567Z,72.20
2023-01-21T23:13:12.978Z,72.40
2023-01-21T23:15:44.464Z,73.60
2023-01-21T23:18:14.573Z,74.30
2023-01-21T23:20:44.053Z,74.70
2023-01-21T23:23:13.701Z,74.90
2023-01-21T23:25:44.202Z,75.60
2023-01-21T23:28:31.530Z,75.90
2023-01-21T23:31:18.904Z,75.90
2023-01-21T23:33:51.161Z,75.70
2023-01-21T23:36:20.275Z,75.60
2023-01-21T23:38:49.010Z,74.90
2023-01-21T23:41:21.210Z,75.20
2023-01-21T23:43:49.990Z,74.90
2023-01-21T23:46:37.110Z,74.50
2023-01-21T23:49:23.204Z,75.70
2023-01-21T23:51:51.941Z,75.30
2023-01-21T23:54:20.640Z,75.50
2023-01-21T23:57:26.714Z,75.30
2023-01-21T23:59:55.449Z,75.10
